Time,TemperatureF,DewpointF,PressureIn,WindDirection,WindDirectionDegrees,WindSpeedMPH,WindSpeedGustMPH,Humidity,HourlyPrecipIn,Conditions,Clouds,dailyrainin,SoftwareType,DateUTC
2013-06-14 00:00:00,60.3,55.5,30.04,East,85,0.0,0.0,84,0.00,,,0.00,VWS V14.01,2013-06-14 05:00:00,
2013-06-14 00:05:00,60.2,55.3,30.03,East,84,0.0,0.0,84,0.00,,,0.00,VWS V14.01,2013-06-14 05:05:00,
2013-06-14 00:10:00,60.1,55.3,30.03,East,84,0.0,0.0,84,0.00,,,0.00,VWS V14.01,2013-06-14 05:10:00,
2013-06-14 00:15:00,60.0,55.2,30.04,East,85,0.0,0.0,84,0.00,,,0.00,VWS V14.01,2013-06-14 05:15:00,
2013-06-14 00:20:00,59.9,55.1,30.04,East,85,0.0,1.0,84,0.00,,,0.00,VWS V14.01,2013-06-14 05:20:00,
2013-06-14 00:26:00,60.1,54.9,30.03,East,85,0.0,1.0,83,0.00,,,0.00,VWS V14.01,2013-06-14 05:26:00,
2013-06-14 00:30:00,60.5,54.7,30.03,East,85,0.0,2.0,81,0.00,,,0.00,VWS V14.01,2013-06-14 05:30:00,
2013-06-14 00:31:00,60.5,54.7,30.03,East,84,0.0,2.0,81,0.00,,,0.00,VWS V14.01,2013-06-14 05:31:00,
2013-06-14 00:36:00,61.2,55.0,30.03,NE,53,3.0,3.0,80,0.00,,,0.00,VWS V14.01,2013-06-14 05:36:00,
2013-06-14 00:41:00,61.9,55.3,30.03,ENE,61,2.0,7.0,79,0.00,,,0.00,VWS V14.01,2013-06-14 05:41:00,
2013-06-14 00:46:00,62.5,54.8,30.03,ENE,69,3.0,7.0,76,0.00,,,0.00,VWS V14.01,2013-06-14 05:46:00,
2013-06-14 00:51:00,62.9,54.5,30.03,ENE,57,0.0,7.0,74,0.00,,,0.00,VWS V14.01,2013-06-14 05:51:00,
2013-06-14 00:56:00,63.2,54.8,30.03,NE,56,0.0,7.0,74,0.00,,,0.00,VWS V14.01,2013-06-14 05:56:00,
2013-06-14 01:00:00,63.3,54.9,30.03,NE,56,3.0,7.0,74,0.00,,,0.00,VWS V14.01,2013-06-14 06:00:00,
2013-06-14 01:01:00,63.3,54.9,30.03,NE,56,2.0,3.0,74,0.00,,,0.00,VWS V14.01,2013-06-14 06:01:00,
2013-06-14 01:06:00,63.3,54.5,30.03,ENE,61,1.0,4.0,73,0.00,,,0.00,VWS V14.01,2013-06-14 06:06:00,
2013-06-14 01:11:00,63.3,54.5,30.03,NE,55,1.0,5.0,73,0.00,,,0.00,VWS V14.01,2013-06-14 06:11:00,
2013-06-14 01:16:00,63.3,54.1,30.03,NE,52,2.0,5.0,72,0.00,,,0.00,VWS V14.01,2013-06-14 06:16:00,
2013-06-14 01:21:00,63.2,54.0,30.03,NE,52,0.0,5.0,72,0.00,,,0.00,VWS V14.01,2013-06-14 06:21:00,
2013-06-14 01:26:00,63.1,53.9,30.03,NE,54,0.0,5.0,72,0.00,,,0.00,VWS V14.01,2013-06-14 06:26:00,
2013-06-14 01:30:00,63.0,53.8,30.03,NE,54,0.0,5.0,72,0.00,,,0.00,VWS V14.01,2013-06-14 06:30:00,
2013-06-14 01:31:00,63.0,53.8,30.03,NE,54,0.0,0.0,72,0.00,,,0.00,VWS V14.01,2013-06-14 06:31:00,
2013-06-14 01:36:00,62.7,53.5,30.04,NE,54,0.0,0.0,72,0.00,,,0.00,VWS V14.01,2013-06-14 06:36:00,
2013-06-14 01:41:00,62.5,54.1,30.03,NE,54,0.0,0.0,74,0.00,,,0.00,VWS V14.01,2013-06-14 06:41:00,
2013-06-14 01:46:00,62.1,53.7,30.03,NE,54,0.0,0.0,74,0.00,,,0.00,VWS V14.01,2013-06-14 06:46:00,
2013-06-14 01:51:00,61.7,53.3,30.03,NE,54,0.0,0.0,74,0.00,,,0.00,VWS V14.01,2013-06-14 06:51:00,
2013-06-14 01:56:00,61.4,52.7,30.02,NE,54,0.0,0.0,73,0.00,,,0.00,VWS V14.01,2013-06-14 06:56:00,
2013-06-14 02:00:00,61.2,53.2,30.02,NE,54,0.0,1.0,75,0.00,,,0.00,VWS V14.01,2013-06-14 07:00:00,
2013-06-14 02:01:00,61.2,53.2,30.02,NE,54,0.0,0.0,75,0.00,,,0.00,VWS V14.01,2013-06-14 07:01:00,
2013-06-14 02:06:00,60.9,52.9,30.02,NE,54,0.0,0.0,75,0.00,,,0.00,VWS V14.01,2013-06-14 07:06:00,
2013-06-14 02:11:00,60.8,52.5,30.02,NE,54,0.0,0.0,74,0.00,,,0.00,VWS V14.01,2013-06-14 07:11:00,
2013-06-14 02:16:00,60.8,52.5,30.02,NE,54,0.0,0.0,74,0.00,,,0.00,VWS V14.01,2013-06-14 07:16:00,
2013-06-14 02:21:00,60.8,52.5,30.03,NE,55,0.0,0.0,74,0.00,,,0.00,VWS V14.01,2013-06-14 07:21:00,
2013-06-14 02:26:00,60.8,52.1,30.03,NE,54,0.0,0.0,73,0.00,,,0.00,VWS V14.01,2013-06-14 07:26:00,
2013-06-14 02:30:00,60.9,52.2,30.03,NE,54,0.0,0.0,73,0.00,,,0.00,VWS V14.01,2013-06-14 07:30:00,
2013-06-14 02:31:00,60.9,52.2,30.03,NE,54,0.0,0.0,73,0.00,,,0.00,VWS V14.01,2013-06-14 07:31:00,
2013-06-14 02:37:00,60.8,52.5,30.03,NE,54,0.0,0.0,74,0.00,,,0.00,VWS V14.01,2013-06-14 07:37:00,
2013-06-14 02:42:00,60.7,52.4,30.04,NE,55,0.0,0.0,74,0.00,,,0.00,VWS V14.01,2013-06-14 07:42:00,
2013-06-14 02:47:00,60.6,53.0,30.05,NE,54,0.0,0.0,76,0.00,,,0.00,VWS V14.01,2013-06-14 07:47:00,
2013-06-14 02:52:00,60.5,53.6,30.04,NE,55,0.0,0.0,78,0.00,,,0.00,VWS V14.01,2013-06-14 07:52:00,
2013-06-14 02:57:00,60.1,52.5,30.04,NE,54,0.0,0.0,76,0.00,,,0.00,VWS V14.01,2013-06-14 07:57:00,
2013-06-14 03:00:00,60.0,52.4,30.04,NE,54,0.0,0.0,76,0.00,,,0.00,VWS V14.01,2013-06-14 08:00:00,
2013-06-14 03:02:00,59.9,52.3,30.04,NE,54,0.0,0.0,76,0.00,,,0.00,VWS V14.01,2013-06-14 08:02:00,
2013-06-14 03:07:00,59.8,52.2,30.04,NE,54,0.0,0.0,76,0.00,,,0.00,VWS V14.01,2013-06-14 08:07:00,
2013-06-14 03:12:00,59.8,52.2,30.04,NE,54,0.0,0.0,76,0.00,,,0.00,VWS V14.01,2013-06-14 08:12:00,
2013-06-14 03:17:00,59.7,52.8,30.04,NE,54,0.0,0.0,78,0.00,,,0.00,VWS V14.01,2013-06-14 08:17:00,
2013-06-14 03:22:00,59.4,52.2,30.04,NE,54,0.0,0.0,77,0.00,,,0.00,VWS V14.01,2013-06-14 08:22:00,
2013-06-14 03:27:00,59.3,52.5,30.04,NE,54,0.0,0.0,78,0.00,,,0.00,VWS V14.01,2013-06-14 08:27:00,
2013-06-14 03:30:00,59.1,51.9,30.04,NE,55,0.0,0.0,77,0.00,,,0.00,VWS V14.01,2013-06-14 08:30:00,
2013-06-14 03:32:00,59.1,51.5,30.04,NE,54,0.0,0.0,76,0.00,,,0.00,VWS V14.01,2013-06-14 08:32:00,
2013-06-14 03:37:00,59.1,52.6,30.04,NE,54,0.0,0.0,79,0.00,,,0.00,VWS V14.01,2013-06-14 08:37:00,
2013-06-14 03:42:00,59.1,52.9,30.04,NE,54,0.0,0.0,80,0.00,,,0.00,VWS V14.01,2013-06-14 08:42:00,
2013-06-14 03:47:00,58.9,52.8,30.04,NE,54,0.0,0.0,80,0.00,,,0.00,VWS V14.01,2013-06-14 08:47:00,
2013-06-14 03:52:00,58.8,52.7,30.04,NE,55,0.0,0.0,80,0.00,,,0.00,VWS V14.01,2013-06-14 08:52:00,
2013-06-14 03:57:00,58.5,52.4,30.04,NE,54,0.0,0.0,80,0.00,,,0.00,VWS V14.01,2013-06-14 08:57:00,
2013-06-14 04:00:00,58.3,51.8,30.05,NE,54,0.0,0.0,79,0.00,,,0.00,VWS V14.01,2013-06-14 09:00:00,
2013-06-14 04:02:00,58.3,52.2,30.05,NE,54,0.0,0.0,80,0.00,,,0.00,VWS V14.01,2013-06-14 09:02:00,
2013-06-14 04:07:00,58.2,52.1,30.05,NE,55,0.0,0.0,80,0.00,,,0.00,VWS V14.01,2013-06-14 09:07:00,
2013-06-14 04:12:00,58.0,51.9,30.04,NE,54,0.0,0.0,80,0.00,,,0.00,VWS V14.01,2013-06-14 09:12:00,
2013-06-14 04:17:00,57.7,51.2,30.04,NE,55,0.0,0.0,79,0.00,,,0.00,VWS V14.01,2013-06-14 09:17:00,
2013-06-14 04:22:00,57.8,51.3,30.04,NE,54,0.0,0.0,79,0.00,,,0.00,VWS V14.01,2013-06-14 09:22:00,
2013-06-14 04:27:00,57.8,51.3,30.04,NE,54,0.0,0.0,79,0.00,,,0.00,VWS V14.01,2013-06-14 09:27:00,
2013-06-14 04:30:00,57.7,51.2,30.03,NE,54,0.0,0.0,79,0.00,,,0.00,VWS V14.01,2013-06-14 09:30:00,
2013-06-14 04:32:00,57.7,51.2,30.03,NE,54,0.0,0.0,79,0.00,,,0.00,VWS V14.01,2013-06-14 09:32:00,
2013-06-14 04:37:00,57.9,51.4,30.03,NE,55,0.0,0.0,79,0.00,,,0.00,VWS V14.01,2013-06-14 09:37:00,
2013-06-14 04:42:00,58.2,51.4,30.03,NE,54,0.0,0.0,78,0.00,,,0.00,VWS V14.01,2013-06-14 09:42:00,
2013-06-14 04:47:00,58.5,51.3,30.03,NE,54,0.0,2.0,77,0.00,,,0.00,VWS V14.01,2013-06-14 09:47:00,
2013-06-14 04:53:00,58.6,51.4,30.02,NE,54,0.0,2.0,77,0.00,,,0.00,VWS V14.01,2013-06-14 09:53:00,
2013-06-14 04:58:00,58.5,51.3,30.02,ENE,57,0.0,3.0,77,0.00,,,0.00,VWS V14.01,2013-06-14 09:58:00,
2013-06-14 05:00:00,58.4,51.6,30.01,ENE,58,0.0,3.0,78,0.00,,,0.00,VWS V14.01,2013-06-14 10:00:00,
2013-06-14 05:03:00,58.4,51.2,30.01,ENE,58,0.0,0.0,77,0.00,,,0.00,VWS V14.01,2013-06-14 10:03:00,
2013-06-14 05:08:00,58.4,51.2,30.01,East,84,5.0,5.0,77,0.00,,,0.00,VWS V14.01,2013-06-14 10:08:00,
2013-06-14 05:13:00,58.5,51.3,30.00,East,98,5.0,9.0,77,0.00,,,0.00,VWS V14.01,2013-06-14 10:13:00,
2013-06-14 05:18:00,58.5,51.3,30.00,East,90,0.0,9.0,77,0.00,,,0.00,VWS V14.01,2013-06-14 10:18:00,
2013-06-14 05:23:00,58.6,51.4,29.99,East,88,1.0,9.0,77,0.00,,,0.00,VWS V14.01,2013-06-14 10:23:00,
2013-06-14 05:28:00,58.6,51.4,29.99,East,83,0.0,9.0,77,0.00,,,0.00,VWS V14.01,2013-06-14 10:28:00,
2013-06-14 05:30:00,58.7,51.5,29.99,East,83,5.0,9.0,77,0.00,,,0.00,VWS V14.01,2013-06-14 10:30:00,
2013-06-14 05:33:00,58.7,51.5,29.99,East,88,3.0,7.0,77,0.00,,,0.00,VWS V14.01,2013-06-14 10:33:00,
2013-06-14 05:38:00,58.9,51.7,29.99,East,93,3.0,7.0,77,0.00,,,0.00,VWS V14.01,2013-06-14 10:38:00,
2013-06-14 05:43:00,59.0,51.8,29.99,East,91,0.0,7.0,77,0.00,,,0.00,VWS V14.01,2013-06-14 10:43:00,
2013-06-14 05:48:00,59.1,51.9,29.99,East,91,0.0,7.0,77,0.00,,,0.00,VWS V14.01,2013-06-14 10:48:00,
2013-06-14 05:53:00,59.3,52.1,29.99,East,94,4.0,7.0,77,0.00,,,0.00,VWS V14.01,2013-06-14 10:53:00,
2013-06-14 05:58:00,59.5,52.3,30.00,East,92,0.0,7.0,77,0.00,,,0.00,VWS V14.01,2013-06-14 10:58:00,
2013-06-14 06:00:00,59.5,51.9,29.99,East,81,4.0,7.0,76,0.00,,,0.00,VWS V14.01,2013-06-14 11:00:00,
2013-06-14 06:03:00,59.6,52.0,29.99,East,81,4.0,7.0,76,0.00,,,0.00,VWS V14.01,2013-06-14 11:03:00,
2013-06-14 06:08:00,59.7,52.1,29.99,East,86,0.0,7.0,76,0.00,,,0.00,VWS V14.01,2013-06-14 11:08:00,
2013-06-14 06:13:00,59.9,52.3,30.00,East,88,1.0,7.0,76,0.00,,,0.00,VWS V14.01,2013-06-14 11:13:00,
2013-06-14 06:18:00,60.0,52.4,30.00,East,88,2.0,7.0,76,0.00,,,0.00,VWS V14.01,2013-06-14 11:18:00,
2013-06-14 06:23:00,60.4,52.8,30.00,East,87,0.0,7.0,76,0.00,,,0.00,VWS V14.01,2013-06-14 11:23:00,
2013-06-14 06:28:00,60.9,52.9,30.01,East,88,2.0,7.0,75,0.00,,,0.00,VWS V14.01,2013-06-14 11:28:00,
2013-06-14 06:30:00,61.2,53.2,30.01,East,81,0.0,7.0,75,0.00,,,0.00,VWS V14.01,2013-06-14 11:30:00,
2013-06-14 06:33:00,61.6,53.6,30.01,East,95,4.0,6.0,75,0.00,,,0.00,VWS V14.01,2013-06-14 11:33:00,
2013-06-14 06:38:00,62.1,53.7,30.01,East,100,1.0,10.0,74,0.00,,,0.00,VWS V14.01,2013-06-14 11:38:00,
2013-06-14 06:43:00,62.3,53.9,30.01,ESE,107,14.0,14.0,74,0.00,,,0.00,VWS V14.01,2013-06-14 11:43:00,
2013-06-14 06:48:00,62.2,53.8,30.01,NE,56,6.0,14.0,74,0.00,,,0.00,VWS V14.01,2013-06-14 11:48:00,
2013-06-14 06:53:00,62.1,53.7,30.02,East,86,2.0,14.0,74,0.00,,,0.00,VWS V14.01,2013-06-14 11:53:00,
2013-06-14 06:58:00,62.1,53.7,30.02,ENE,78,4.0,14.0,74,0.00,,,0.00,VWS V14.01,2013-06-14 11:58:00,
2013-06-14 07:00:00,62.1,53.7,30.02,East,93,4.0,14.0,74,0.00,,,0.00,VWS V14.01,2013-06-14 12:00:00,
2013-06-14 07:03:00,62.1,53.7,30.01,East,81,7.0,11.0,74,0.00,,,0.00,VWS V14.01,2013-06-14 12:03:00,
2013-06-14 07:08:00,62.0,54.0,30.01,East,92,4.0,15.0,75,0.00,,,0.00,VWS V14.01,2013-06-14 12:08:00,
2013-06-14 07:14:00,62.0,54.0,30.02,East,90,2.0,15.0,75,0.00,,,0.00,VWS V14.01,2013-06-14 12:14:00,
2013-06-14 07:19:00,62.0,54.0,30.03,East,85,0.0,15.0,75,0.00,,,0.00,VWS V14.01,2013-06-14 12:19:00,
2013-06-14 07:24:00,62.0,54.0,30.03,East,98,4.0,15.0,75,0.00,,,0.00,VWS V14.01,2013-06-14 12:24:00,
2013-06-14 07:29:00,62.5,54.5,30.04,ESE,102,5.0,15.0,75,0.00,,,0.00,VWS V14.01,2013-06-14 12:29:00,
2013-06-14 07:30:00,63.0,55.0,30.04,East,79,1.0,15.0,75,0.00,,,0.00,VWS V14.01,2013-06-14 12:30:00,
2013-06-14 07:34:00,63.6,55.5,30.04,East,81,3.0,11.0,75,0.00,,,0.00,VWS V14.01,2013-06-14 12:34:00,
2013-06-14 07:39:00,64.3,55.1,30.03,ENE,77,4.0,11.0,72,0.00,,,0.00,VWS V14.01,2013-06-14 12:39:00,
2013-06-14 07:44:00,64.0,55.2,30.03,East,99,7.0,11.0,73,0.00,,,0.00,VWS V14.01,2013-06-14 12:44:00,
2013-06-14 07:49:00,63.7,54.9,30.03,East,96,4.0,11.0,73,0.00,,,0.00,VWS V14.01,2013-06-14 12:49:00,
2013-06-14 07:54:00,63.5,54.7,30.02,East,83,7.0,12.0,73,0.00,,,0.00,VWS V14.01,2013-06-14 12:54:00,
2013-06-14 07:59:00,63.2,54.8,30.02,East,81,3.0,12.0,74,0.00,,,0.00,VWS V14.01,2013-06-14 12:59:00,
2013-06-14 08:00:00,63.2,54.8,30.02,East,97,5.0,12.0,74,0.00,,,0.00,VWS V14.01,2013-06-14 13:00:00,
2013-06-14 08:04:00,63.1,54.7,30.02,East,94,3.0,11.0,74,0.00,,,0.00,VWS V14.01,2013-06-14 13:04:00,
2013-06-14 08:09:00,63.0,55.3,30.02,East,92,3.0,11.0,76,0.00,,,0.00,VWS V14.01,2013-06-14 13:09:00,
2013-06-14 08:14:00,63.1,55.4,30.03,East,94,3.0,12.0,76,0.00,,,0.00,VWS V14.01,2013-06-14 13:14:00,
2013-06-14 08:19:00,63.3,55.6,30.02,East,101,3.0,12.0,76,0.00,,,0.00,VWS V14.01,2013-06-14 13:19:00,
2013-06-14 08:24:00,63.7,56.0,30.02,East,96,4.0,12.0,76,0.00,,,0.00,VWS V14.01,2013-06-14 13:24:00,
2013-06-14 08:29:00,64.3,56.2,30.02,ESE,110,5.0,12.0,75,0.00,,,0.00,VWS V14.01,2013-06-14 13:29:00,
2013-06-14 08:30:00,64.4,56.3,30.02,East,100,6.0,12.0,75,0.00,,,0.00,VWS V14.01,2013-06-14 13:30:00,
2013-06-14 08:34:00,64.9,56.4,30.01,East,95,11.0,13.0,74,0.00,,,0.00,VWS V14.01,2013-06-14 13:34:00,
2013-06-14 08:39:00,65.2,56.7,30.01,ENE,77,8.0,15.0,74,0.00,,,0.00,VWS V14.01,2013-06-14 13:39:00,
2013-06-14 08:45:00,65.3,56.4,30.01,ESE,108,9.0,16.0,73,0.00,,,0.00,VWS V14.01,2013-06-14 13:45:00,
2013-06-14 08:50:00,65.6,56.7,30.01,East,96,10.0,16.0,73,0.00,,,0.00,VWS V14.01,2013-06-14 13:50:00,
2013-06-14 08:55:00,65.9,57.0,30.01,East,97,11.0,16.0,73,0.00,,,0.00,VWS V14.01,2013-06-14 13:55:00,
2013-06-14 09:00:00,66.5,57.2,30.01,East,87,6.0,16.0,72,0.00,,,0.00,VWS V14.01,2013-06-14 14:00:00,
2013-06-14 09:05:00,66.8,57.5,30.02,SE,124,0.0,11.0,72,0.00,,,0.00,VWS V14.01,2013-06-14 14:05:00,
2013-06-14 09:10:00,66.8,57.1,30.02,East,80,4.0,12.0,71,0.00,,,0.00,VWS V14.01,2013-06-14 14:10:00,
2013-06-14 09:15:00,67.3,57.6,30.02,ESE,103,6.0,12.0,71,0.00,,,0.00,VWS V14.01,2013-06-14 14:15:00,
2013-06-14 09:20:00,68.2,58.0,30.02,ESE,112,10.0,14.0,70,0.00,,,0.00,VWS V14.01,2013-06-14 14:20:00,
2013-06-14 09:25:00,69.2,59.0,30.02,ESE,104,3.0,14.0,70,0.00,,,0.00,VWS V14.01,2013-06-14 14:25:00,
2013-06-14 09:30:00,69.6,59.0,30.02,ESE,117,7.0,14.0,69,0.00,,,0.00,VWS V14.01,2013-06-14 14:30:00,
2013-06-14 09:35:00,70.2,59.6,30.02,ESE,104,6.0,12.0,69,0.00,,,0.00,VWS V14.01,2013-06-14 14:35:00,
2013-06-14 09:40:00,70.9,60.2,30.01,SE,132,11.0,14.0,69,0.00,,,0.00,VWS V14.01,2013-06-14 14:40:00,
2013-06-14 09:45:00,70.9,59.0,30.01,East,93,12.0,16.0,66,0.00,,,0.00,VWS V14.01,2013-06-14 14:45:00,
2013-06-14 09:50:00,71.0,59.9,30.01,ESE,106,12.0,16.0,68,0.00,,,0.00,VWS V14.01,2013-06-14 14:50:00,
2013-06-14 09:55:00,71.2,59.7,30.01,East,84,8.0,16.0,67,0.00,,,0.00,VWS V14.01,2013-06-14 14:55:00,
2013-06-14 10:00:00,71.5,60.0,30.01,ESE,106,12.0,17.0,67,0.00,,,0.00,VWS V14.01,2013-06-14 15:00:00,
2013-06-14 10:05:00,71.7,60.2,30.01,ESE,116,13.0,13.0,67,0.00,,,0.00,VWS V14.01,2013-06-14 15:05:00,
2013-06-14 10:10:00,72.1,60.5,30.00,East,86,9.0,16.0,67,0.00,,,0.00,VWS V14.01,2013-06-14 15:10:00,
2013-06-14 10:15:00,72.8,60.4,30.00,ESE,115,4.0,17.0,65,0.00,,,0.00,VWS V14.01,2013-06-14 15:15:00,
2013-06-14 10:20:00,73.4,60.9,30.00,East,99,12.0,17.0,65,0.00,,,0.00,VWS V14.01,2013-06-14 15:20:00,
2013-06-14 10:25:00,73.1,60.2,30.00,East,98,10.0,17.0,64,0.00,,,0.00,VWS V14.01,2013-06-14 15:25:00,
2013-06-14 10:30:00,72.6,59.7,30.00,East,96,9.0,17.0,64,0.00,,,0.00,VWS V14.01,2013-06-14 15:30:00,
2013-06-14 10:35:00,72.5,60.5,30.01,ESE,103,2.0,11.0,66,0.00,,,0.00,VWS V14.01,2013-06-14 15:35:00,
2013-06-14 10:40:00,72.9,61.3,30.01,East,99,6.0,11.0,67,0.00,,,0.00,VWS V14.01,2013-06-14 15:40:00,
2013-06-14 10:45:00,73.8,61.7,30.01,ENE,75,5.0,13.0,66,0.00,,,0.00,VWS V14.01,2013-06-14 15:45:00,
2013-06-14 10:51:00,73.7,60.8,30.00,ESE,105,10.0,13.0,64,0.00,,,0.00,VWS V14.01,2013-06-14 15:51:00,
2013-06-14 10:56:00,73.5,60.6,30.00,ESE,117,12.0,17.0,64,0.00,,,0.00,VWS V14.01,2013-06-14 15:56:00,
2013-06-14 11:00:00,73.4,60.9,30.00,SE,135,10.0,17.0,65,0.00,,,0.00,VWS V14.01,2013-06-14 16:00:00,
2013-06-14 11:01:00,73.4,60.9,30.00,ESE,110,9.0,17.0,65,0.00,,,0.00,VWS V14.01,2013-06-14 16:01:00,
2013-06-14 11:06:00,73.6,61.1,30.00,East,94,4.0,15.0,65,0.00,,,0.00,VWS V14.01,2013-06-14 16:06:00,
2013-06-14 11:11:00,74.0,61.1,29.99,East,93,13.0,16.0,64,0.00,,,0.00,VWS V14.01,2013-06-14 16:11:00,
2013-06-14 11:16:00,74.2,61.7,29.98,ESE,115,16.0,17.0,65,0.00,,,0.00,VWS V14.01,2013-06-14 16:16:00,
2013-06-14 11:21:00,74.0,60.6,29.98,SE,135,9.0,18.0,63,0.00,,,0.00,VWS V14.01,2013-06-14 16:21:00,
2013-06-14 11:26:00,74.0,61.5,29.98,SE,132,12.0,20.0,65,0.00,,,0.00,VWS V14.01,2013-06-14 16:26:00,
2013-06-14 11:30:00,74.7,62.2,29.97,ENE,77,5.0,20.0,65,0.00,,,0.00,VWS V14.01,2013-06-14 16:30:00,
2013-06-14 11:31:00,74.7,62.2,29.97,East,81,2.0,5.0,65,0.00,,,0.00,VWS V14.01,2013-06-14 16:31:00,
2013-06-14 11:36:00,75.4,62.4,29.97,East,93,9.0,18.0,64,0.00,,,0.00,VWS V14.01,2013-06-14 16:36:00,
2013-06-14 11:41:00,75.3,61.4,29.97,SE,132,14.0,19.0,62,0.00,,,0.00,VWS V14.01,2013-06-14 16:41:00,
2013-06-14 11:46:00,75.0,61.1,29.97,ENE,77,14.0,19.0,62,0.00,,,0.00,VWS V14.01,2013-06-14 16:46:00,
2013-06-14 11:51:00,74.9,61.5,29.97,East,90,11.0,20.0,63,0.00,,,0.00,VWS V14.01,2013-06-14 16:51:00,
2013-06-14 11:56:00,74.9,61.5,29.97,ENE,71,4.0,20.0,63,0.00,,,0.00,VWS V14.01,2013-06-14 16:56:00,
2013-06-14 12:00:00,74.9,61.0,29.97,East,94,14.0,20.0,62,0.00,,,0.00,VWS V14.01,2013-06-14 17:00:00,
2013-06-14 12:01:00,74.9,61.0,29.97,East,89,7.0,18.0,62,0.00,,,0.00,VWS V14.01,2013-06-14 17:01:00,
2013-06-14 12:06:00,75.3,62.3,29.96,ESE,106,15.0,18.0,64,0.00,,,0.00,VWS V14.01,2013-06-14 17:06:00,
2013-06-14 12:11:00,76.1,62.2,29.96,ESE,117,14.0,21.0,62,0.00,,,0.00,VWS V14.01,2013-06-14 17:11:00,
2013-06-14 12:16:00,76.3,60.9,29.96,SE,136,8.0,25.0,59,0.00,,,0.00,VWS V14.01,2013-06-14 17:16:00,
2013-06-14 12:21:00,76.1,61.2,29.96,ESE,112,10.0,25.0,60,0.00,,,0.00,VWS V14.01,2013-06-14 17:21:00,
2013-06-14 12:26:00,75.5,60.7,29.96,East,79,11.0,25.0,60,0.00,,,0.00,VWS V14.01,2013-06-14 17:26:00,
2013-06-14 12:30:00,75.2,60.4,29.96,East,83,14.0,25.0,60,0.00,,,0.00,VWS V14.01,2013-06-14 17:30:00,
2013-06-14 12:31:00,75.2,60.4,29.96,ENE,76,11.0,15.0,60,0.00,,,0.00,VWS V14.01,2013-06-14 17:31:00,
2013-06-14 12:36:00,75.5,61.1,29.95,East,91,4.0,18.0,61,0.00,,,0.00,VWS V14.01,2013-06-14 17:36:00,
2013-06-14 12:41:00,76.0,62.0,29.95,ESE,118,10.0,18.0,62,0.00,,,0.00,VWS V14.01,2013-06-14 17:41:00,
2013-06-14 12:46:00,76.4,62.0,29.95,SE,125,6.0,21.0,61,0.00,,,0.00,VWS V14.01,2013-06-14 17:46:00,
2013-06-14 12:51:00,76.9,62.4,29.94,East,87,10.0,21.0,61,0.00,,,0.00,VWS V14.01,2013-06-14 17:51:00,
2013-06-14 12:57:00,77.4,62.4,29.95,East,87,9.0,21.0,60,0.00,,,0.00,VWS V14.01,2013-06-14 17:57:00,
2013-06-14 13:00:00,77.3,61.4,29.95,East,85,10.0,21.0,58,0.00,,,0.00,VWS V14.01,2013-06-14 18:00:00,
2013-06-14 13:02:00,77.3,61.4,29.95,East,100,11.0,20.0,58,0.00,,,0.00,VWS V14.01,2013-06-14 18:02:00,
2013-06-14 13:07:00,76.9,61.5,29.96,ESE,110,13.0,20.0,59,0.00,,,0.00,VWS V14.01,2013-06-14 18:07:00,
2013-06-14 13:12:00,76.6,61.2,29.96,East,100,14.0,20.0,59,0.00,,,0.00,VWS V14.01,2013-06-14 18:12:00,
2013-06-14 13:17:00,76.2,61.3,29.96,ESE,108,7.0,22.0,60,0.00,,,0.00,VWS V14.01,2013-06-14 18:17:00,
2013-06-14 13:22:00,76.0,61.1,29.96,East,87,8.0,22.0,60,0.00,,,0.00,VWS V14.01,2013-06-14 18:22:00,
2013-06-14 13:27:00,75.9,61.5,29.96,ESE,117,7.0,22.0,61,0.00,,,0.00,VWS V14.01,2013-06-14 18:27:00,
2013-06-14 13:30:00,75.8,61.9,29.97,East,93,1.0,22.0,62,0.00,,,0.00,VWS V14.01,2013-06-14 18:30:00,
2013-06-14 13:32:00,75.8,61.4,29.96,East,80,12.0,12.0,61,0.00,,,0.00,VWS V14.01,2013-06-14 18:32:00,
2013-06-14 13:37:00,75.8,61.9,29.97,ESE,103,1.0,12.0,62,0.00,,,0.00,VWS V14.01,2013-06-14 18:37:00,
2013-06-14 13:42:00,75.8,61.9,29.97,East,98,4.0,12.0,62,0.00,,,0.00,VWS V14.01,2013-06-14 18:42:00,
2013-06-14 13:47:00,75.8,62.3,29.96,East,93,12.0,14.0,63,0.00,,,0.00,VWS V14.01,2013-06-14 18:47:00,
2013-06-14 13:52:00,75.7,61.8,29.97,ESE,107,5.0,14.0,62,0.00,,,0.00,VWS V14.01,2013-06-14 18:52:00,
2013-06-14 13:57:00,75.5,62.0,29.96,East,99,5.0,14.0,63,0.00,,,0.00,VWS V14.01,2013-06-14 18:57:00,
2013-06-14 14:00:00,75.4,62.4,29.96,East,100,8.0,14.0,64,0.00,,,0.00,VWS V14.01,2013-06-14 19:00:00,
2013-06-14 14:02:00,75.4,62.4,29.96,ESE,104,6.0,11.0,64,0.00,,,0.00,VWS V14.01,2013-06-14 19:02:00,
2013-06-14 14:07:00,75.2,62.6,29.95,East,91,4.0,13.0,65,0.00,,,0.00,VWS V14.01,2013-06-14 19:07:00,
2013-06-14 14:12:00,75.1,62.1,29.94,East,99,9.0,19.0,64,0.00,,,0.00,VWS V14.01,2013-06-14 19:12:00,
2013-06-14 14:17:00,75.2,62.6,29.94,ESE,110,5.0,19.0,65,0.00,,,0.00,VWS V14.01,2013-06-14 19:17:00,
2013-06-14 14:22:00,75.5,62.5,29.94,East,95,9.0,19.0,64,0.00,,,0.00,VWS V14.01,2013-06-14 19:22:00,
2013-06-14 14:27:00,75.7,62.7,29.93,East,91,10.0,19.0,64,0.00,,,0.00,VWS V14.01,2013-06-14 19:27:00,
2013-06-14 14:30:00,75.9,62.4,29.93,ESE,119,11.0,19.0,63,0.00,,,0.00,VWS V14.01,2013-06-14 19:30:00,
2013-06-14 14:32:00,76.0,63.0,29.92,ESE,107,1.0,15.0,64,0.00,,,0.00,VWS V14.01,2013-06-14 19:32:00,
2013-06-14 14:37:00,76.1,62.6,29.92,East,97,8.0,15.0,63,0.00,,,0.00,VWS V14.01,2013-06-14 19:37:00,
2013-06-14 14:42:00,75.8,62.3,29.91,East,81,11.0,21.0,63,0.00,,,0.00,VWS V14.01,2013-06-14 19:42:00,
2013-06-14 14:47:00,75.7,61.8,29.91,East,99,17.0,23.0,62,0.00,,,0.00,VWS V14.01,2013-06-14 19:47:00,
2013-06-14 14:52:00,75.7,62.2,29.91,ENE,69,11.0,23.0,63,0.00,,,0.00,VWS V14.01,2013-06-14 19:52:00,
2013-06-14 14:57:00,75.8,62.3,29.91,SE,125,11.0,23.0,63,0.00,,,0.00,VWS V14.01,2013-06-14 19:57:00,
2013-06-14 15:00:00,76.1,62.6,29.91,ESE,107,6.0,23.0,63,0.00,,,0.00,VWS V14.01,2013-06-14 20:00:00,
2013-06-14 15:03:00,76.3,62.8,29.90,East,100,14.0,19.0,63,0.00,,,0.00,VWS V14.01,2013-06-14 20:03:00,
2013-06-14 15:08:00,76.8,62.3,29.89,SE,135,12.0,22.0,61,0.00,,,0.00,VWS V14.01,2013-06-14 20:08:00,
2013-06-14 15:13:00,77.2,62.7,29.89,East,88,15.0,25.0,61,0.00,,,0.00,VWS V14.01,2013-06-14 20:13:00,
2013-06-14 15:18:00,77.4,62.4,29.89,SE,130,12.0,25.0,60,0.00,,,0.00,VWS V14.01,2013-06-14 20:18:00,
2013-06-14 15:23:00,77.7,62.2,29.89,East,82,11.0,25.0,59,0.00,,,0.00,VWS V14.01,2013-06-14 20:23:00,
2013-06-14 15:28:00,77.9,62.4,29.89,ESE,119,14.0,25.0,59,0.00,,,0.00,VWS V14.01,2013-06-14 20:28:00,
2013-06-14 15:30:00,77.9,62.4,29.89,East,89,10.0,25.0,59,0.00,,,0.00,VWS V14.01,2013-06-14 20:30:00,
2013-06-14 15:33:00,77.9,62.9,29.89,SE,139,17.0,19.0,60,0.00,,,0.00,VWS V14.01,2013-06-14 20:33:00,
2013-06-14 15:38:00,78.0,63.0,29.89,ESE,106,7.0,22.0,60,0.00,,,0.00,VWS V14.01,2013-06-14 20:38:00,
2013-06-14 15:43:00,78.3,62.8,29.89,East,91,11.0,22.0,59,0.00,,,0.00,VWS V14.01,2013-06-14 20:43:00,
2013-06-14 15:48:00,78.4,62.9,29.89,ESE,109,10.0,23.0,59,0.00,,,0.00,VWS V14.01,2013-06-14 20:48:00,
2013-06-14 15:53:00,78.5,63.5,29.89,ESE,117,9.0,24.0,60,0.00,,,0.00,VWS V14.01,2013-06-14 20:53:00,
2013-06-14 15:58:00,78.8,63.3,29.89,ESE,104,15.0,24.0,59,0.00,,,0.00,VWS V14.01,2013-06-14 20:58:00,
2013-06-14 16:00:00,78.8,62.8,29.89,WSW,245,5.0,24.0,58,0.00,,,0.00,VWS V14.01,2013-06-14 21:00:00,
2013-06-14 16:03:00,79.0,63.5,29.89,East,86,14.0,22.0,59,0.00,,,0.00,VWS V14.01,2013-06-14 21:03:00,
2013-06-14 16:08:00,79.1,63.1,29.89,ESE,120,13.0,22.0,58,0.00,,,0.00,VWS V14.01,2013-06-14 21:08:00,
2013-06-14 16:13:00,79.3,63.3,29.89,East,95,6.0,22.0,58,0.00,,,0.00,VWS V14.01,2013-06-14 21:13:00,
2013-06-14 16:18:00,79.3,63.3,29.89,SE,139,9.0,22.0,58,0.00,,,0.00,VWS V14.01,2013-06-14 21:18:00,
2013-06-14 16:23:00,79.2,63.2,29.88,East,81,11.0,23.0,58,0.00,,,0.00,VWS V14.01,2013-06-14 21:23:00,
2013-06-14 16:28:00,79.5,63.9,29.88,SE,129,12.0,23.0,59,0.00,,,0.00,VWS V14.01,2013-06-14 21:28:00,
2013-06-14 16:30:00,79.6,63.0,29.88,East,100,13.0,23.0,57,0.00,,,0.00,VWS V14.01,2013-06-14 21:30:00,
2013-06-14 16:33:00,79.6,64.0,29.88,East,100,4.0,18.0,59,0.00,,,0.00,VWS V14.01,2013-06-14 21:33:00,
2013-06-14 16:38:00,79.3,63.3,29.88,ESE,103,10.0,19.0,58,0.00,,,0.00,VWS V14.01,2013-06-14 21:38:00,
2013-06-14 16:43:00,79.1,63.6,29.87,SE,131,9.0,21.0,59,0.00,,,0.00,VWS V14.01,2013-06-14 21:43:00,
2013-06-14 16:48:00,78.8,63.3,29.87,ENE,74,9.0,21.0,59,0.00,,,0.00,VWS V14.01,2013-06-14 21:48:00,
2013-06-14 16:53:00,78.4,63.4,29.87,East,81,14.0,21.0,60,0.00,,,0.00,VWS V14.01,2013-06-14 21:53:00,
2013-06-14 16:58:00,78.5,63.5,29.86,East,98,12.0,21.0,60,0.00,,,0.00,VWS V14.01,2013-06-14 21:58:00,
2013-06-14 17:00:00,78.7,63.2,29.86,ESE,113,12.0,21.0,59,0.00,,,0.00,VWS V14.01,2013-06-14 22:00:00,
2013-06-14 17:04:00,78.5,63.0,29.87,East,83,4.0,18.0,59,0.00,,,0.00,VWS V14.01,2013-06-14 22:04:00,
2013-06-14 17:09:00,78.5,63.5,29.86,East,92,11.0,18.0,60,0.00,,,0.00,VWS V14.01,2013-06-14 22:09:00,
2013-06-14 17:14:00,78.7,63.7,29.86,East,86,12.0,20.0,60,0.00,,,0.00,VWS V14.01,2013-06-14 22:14:00,
2013-06-14 17:19:00,79.1,64.0,29.86,East,92,12.0,21.0,60,0.00,,,0.00,VWS V14.01,2013-06-14 22:19:00,
2013-06-14 17:24:00,78.9,63.4,29.86,East,89,3.0,21.0,59,0.00,,,0.00,VWS V14.01,2013-06-14 22:24:00,
2013-06-14 17:29:00,78.9,63.8,29.85,ESE,105,10.0,21.0,60,0.00,,,0.00,VWS V14.01,2013-06-14 22:29:00,
2013-06-14 17:30:00,79.0,63.9,29.86,East,100,15.0,21.0,60,0.00,,,0.00,VWS V14.01,2013-06-14 22:30:00,
2013-06-14 17:34:00,79.3,64.2,29.85,ESE,104,6.0,15.0,60,0.00,,,0.00,VWS V14.01,2013-06-14 22:34:00,
2013-06-14 17:39:00,79.6,64.0,29.86,East,90,6.0,19.0,59,0.00,,,0.00,VWS V14.01,2013-06-14 22:39:00,
2013-06-14 17:44:00,79.8,64.2,29.86,ENE,77,13.0,19.0,59,0.00,,,0.00,VWS V14.01,2013-06-14 22:44:00,
2013-06-14 17:49:00,80.0,64.4,29.85,East,94,11.0,19.0,59,0.00,,,0.00,VWS V14.01,2013-06-14 22:49:00,
2013-06-14 17:54:00,80.1,64.0,29.85,ESE,114,6.0,19.0,58,0.00,,,0.00,VWS V14.01,2013-06-14 22:54:00,
2013-06-14 17:59:00,80.0,63.9,29.85,ESE,110,12.0,19.0,58,0.00,,,0.00,VWS V14.01,2013-06-14 22:59:00,
2013-06-14 18:00:00,80.0,63.9,29.85,ESE,111,10.0,19.0,58,0.00,,,0.00,VWS V14.01,2013-06-14 23:00:00,
2013-06-14 18:04:00,79.9,63.8,29.85,ENE,77,8.0,13.0,58,0.00,,,0.00,VWS V14.01,2013-06-14 23:04:00,
2013-06-14 18:09:00,79.6,64.0,29.85,East,101,4.0,13.0,59,0.00,,,0.00,VWS V14.01,2013-06-14 23:09:00,
2013-06-14 18:14:00,79.3,63.7,29.85,East,85,7.0,18.0,59,0.00,,,0.00,VWS V14.01,2013-06-14 23:14:00,
2013-06-14 18:19:00,79.0,63.9,29.85,East,84,9.0,18.0,60,0.00,,,0.00,VWS V14.01,2013-06-14 23:19:00,
2013-06-14 18:24:00,78.7,63.7,29.85,East,98,7.0,18.0,60,0.00,,,0.00,VWS V14.01,2013-06-14 23:24:00,
2013-06-14 18:29:00,78.4,63.4,29.85,ESE,110,9.0,18.0,60,0.00,,,0.00,VWS V14.01,2013-06-14 23:29:00,
2013-06-14 18:30:00,78.2,62.7,29.85,ESE,112,2.0,18.0,59,0.00,,,0.00,VWS V14.01,2013-06-14 23:30:00,
2013-06-14 18:34:00,78.0,62.5,29.85,South,172,10.0,15.0,59,0.00,,,0.00,VWS V14.01,2013-06-14 23:34:00,
2013-06-14 18:39:00,77.8,62.8,29.85,SE,125,6.0,15.0,60,0.00,,,0.00,VWS V14.01,2013-06-14 23:39:00,
2013-06-14 18:44:00,77.5,62.5,29.85,ESE,123,2.0,15.0,60,0.00,,,0.00,VWS V14.01,2013-06-14 23:44:00,
2013-06-14 18:49:00,77.3,62.8,29.85,SE,133,4.0,15.0,61,0.00,,,0.00,VWS V14.01,2013-06-14 23:49:00,
2013-06-14 18:54:00,77.2,63.2,29.85,East,94,12.0,15.0,62,0.00,,,0.00,VWS V14.01,2013-06-14 23:54:00,
2013-06-14 18:59:00,77.0,63.0,29.85,SE,134,5.0,15.0,62,0.00,,,0.00,VWS V14.01,2013-06-14 23:59:00,
2013-06-14 19:00:00,77.0,63.0,29.85,ESE,113,13.0,15.0,62,0.00,,,0.00,VWS V14.01,2013-06-15 00:00:00,
2013-06-14 19:04:00,76.9,63.4,29.85,ESE,104,3.0,13.0,63,0.00,,,0.00,VWS V14.01,2013-06-15 00:04:00,
2013-06-14 19:09:00,76.8,63.3,29.85,ESE,107,5.0,13.0,63,0.00,,,0.00,VWS V14.01,2013-06-15 00:09:00,
2013-06-14 19:14:00,76.6,62.6,29.85,East,92,9.0,13.0,62,0.00,,,0.00,VWS V14.01,2013-06-15 00:14:00,
2013-06-14 19:20:00,76.5,63.0,29.85,ESE,116,9.0,13.0,63,0.00,,,0.00,VWS V14.01,2013-06-15 00:20:00,
2013-06-14 19:25:00,76.4,62.9,29.85,ESE,118,19.0,19.0,63,0.00,,,0.00,VWS V14.01,2013-06-15 00:25:00,
2013-06-14 19:30:00,76.2,62.7,29.85,SE,131,5.0,19.0,63,0.00,,,0.00,VWS V14.01,2013-06-15 00:30:00,
2013-06-14 19:35:00,76.0,63.0,29.86,SE,140,8.0,10.0,64,0.00,,,0.00,VWS V14.01,2013-06-15 00:35:00,
2013-06-14 19:40:00,75.9,62.9,29.86,SE,131,6.0,12.0,64,0.00,,,0.00,VWS V14.01,2013-06-15 00:40:00,
2013-06-14 19:45:00,75.7,62.7,29.85,East,99,7.0,12.0,64,0.00,,,0.00,VWS V14.01,2013-06-15 00:45:00,
2013-06-14 19:50:00,75.6,62.6,29.85,ESE,119,11.0,18.0,64,0.00,,,0.00,VWS V14.01,2013-06-15 00:50:00,
2013-06-14 19:55:00,75.5,62.5,29.85,East,85,9.0,18.0,64,0.00,,,0.00,VWS V14.01,2013-06-15 00:55:00,
2013-06-14 20:00:00,75.3,62.7,29.85,East,94,6.0,18.0,65,0.00,,,0.00,VWS V14.01,2013-06-15 01:00:00,
2013-06-14 20:05:00,75.2,62.6,29.85,East,100,4.0,11.0,65,0.00,,,0.00,VWS V14.01,2013-06-15 01:05:00,
2013-06-14 20:10:00,75.1,62.5,29.84,ESE,102,1.0,11.0,65,0.00,,,0.00,VWS V14.01,2013-06-15 01:10:00,
2013-06-14 20:15:00,75.0,62.5,29.84,ESE,104,9.0,16.0,65,0.00,,,0.00,VWS V14.01,2013-06-15 01:15:00,
2013-06-14 20:20:00,74.9,62.3,29.85,ESE,110,6.0,16.0,65,0.00,,,0.00,VWS V14.01,2013-06-15 01:20:00,
2013-06-14 20:25:00,74.8,62.7,29.84,ESE,109,8.0,16.0,66,0.00,,,0.00,VWS V14.01,2013-06-15 01:25:00,
2013-06-14 20:30:00,74.6,62.5,29.84,ESE,114,4.0,16.0,66,0.00,,,0.00,VWS V14.01,2013-06-15 01:30:00,
2013-06-14 20:35:00,74.5,62.4,29.84,East,95,7.0,10.0,66,0.00,,,0.00,VWS V14.01,2013-06-15 01:35:00,
2013-06-14 20:40:00,74.4,62.3,29.83,East,92,9.0,13.0,66,0.00,,,0.00,VWS V14.01,2013-06-15 01:40:00,
2013-06-14 20:45:00,74.3,62.2,29.84,SE,144,2.0,13.0,66,0.00,,,0.00,VWS V14.01,2013-06-15 01:45:00,
2013-06-14 20:50:00,74.2,62.1,29.83,SE,125,5.0,13.0,66,0.00,,,0.00,VWS V14.01,2013-06-15 01:50:00,
2013-06-14 20:55:00,74.0,62.4,29.83,SE,124,6.0,16.0,67,0.00,,,0.00,VWS V14.01,2013-06-15 01:55:00,
2013-06-14 21:00:00,73.9,62.3,29.84,ENE,76,6.0,17.0,67,0.00,,,0.00,VWS V14.01,2013-06-15 02:00:00,
2013-06-14 21:05:00,73.7,62.1,29.84,SE,125,4.0,13.0,67,0.00,,,0.00,VWS V14.01,2013-06-15 02:05:00,
2013-06-14 21:10:00,73.5,61.9,29.85,ESE,123,3.0,13.0,67,0.00,,,0.00,VWS V14.01,2013-06-15 02:10:00,
2013-06-14 21:15:00,73.5,62.3,29.85,ESE,122,4.0,15.0,68,0.00,,,0.00,VWS V14.01,2013-06-15 02:15:00,
2013-06-14 21:20:00,73.4,62.2,29.84,East,97,4.0,15.0,68,0.00,,,0.00,VWS V14.01,2013-06-15 02:20:00,
2013-06-14 21:25:00,73.3,62.1,29.84,East,93,6.0,15.0,68,0.00,,,0.00,VWS V14.01,2013-06-15 02:25:00,
2013-06-14 21:30:00,73.3,62.1,29.85,East,96,5.0,15.0,68,0.00,,,0.00,VWS V14.01,2013-06-15 02:30:00,
2013-06-14 21:31:00,73.2,62.0,29.85,East,96,6.0,15.0,68,0.00,,,0.00,VWS V14.01,2013-06-15 02:31:00,
2013-06-14 21:36:00,73.2,62.0,29.85,SSE,166,4.0,13.0,68,0.00,,,0.00,VWS V14.01,2013-06-15 02:36:00,
2013-06-14 21:41:00,73.1,61.9,29.85,East,95,5.0,13.0,68,0.00,,,0.00,VWS V14.01,2013-06-15 02:41:00,
2013-06-14 21:46:00,73.1,61.9,29.85,SE,146,13.0,15.0,68,0.00,,,0.00,VWS V14.01,2013-06-15 02:46:00,
2013-06-14 21:51:00,73.1,61.9,29.85,ESE,109,4.0,17.0,68,0.00,,,0.00,VWS V14.01,2013-06-15 02:51:00,
2013-06-14 21:56:00,73.1,61.5,29.84,SE,128,7.0,17.0,67,0.00,,,0.00,VWS V14.01,2013-06-15 02:56:00,
2013-06-14 22:00:00,73.1,61.5,29.84,ESE,121,5.0,17.0,67,0.00,,,0.00,VWS V14.01,2013-06-15 03:00:00,
2013-06-14 22:01:00,73.1,61.5,29.84,ESE,121,5.0,17.0,67,0.00,,,0.00,VWS V14.01,2013-06-15 03:01:00,
2013-06-14 22:06:00,73.0,61.8,29.84,ESE,117,4.0,11.0,68,0.00,,,0.00,VWS V14.01,2013-06-15 03:06:00,
2013-06-14 22:11:00,72.9,61.7,29.84,ESE,104,4.0,11.0,68,0.00,,,0.00,VWS V14.01,2013-06-15 03:11:00,
2013-06-14 22:16:00,72.8,61.6,29.84,ESE,110,2.0,11.0,68,0.00,,,0.00,VWS V14.01,2013-06-15 03:16:00,
2013-06-14 22:21:00,72.6,61.4,29.84,ESE,105,1.0,11.0,68,0.00,,,0.00,VWS V14.01,2013-06-15 03:21:00,
2013-06-14 22:26:00,72.5,61.8,29.84,SSE,160,1.0,14.0,69,0.00,,,0.00,VWS V14.01,2013-06-15 03:26:00,
2013-06-14 22:30:00,72.3,61.6,29.84,ESE,106,0.0,14.0,69,0.00,,,0.00,VWS V14.01,2013-06-15 03:30:00,
2013-06-14 22:31:00,72.3,61.6,29.84,SE,135,3.0,5.0,69,0.00,,,0.00,VWS V14.01,2013-06-15 03:31:00,
2013-06-14 22:36:00,72.2,61.5,29.84,ESE,118,3.0,7.0,69,0.00,,,0.00,VWS V14.01,2013-06-15 03:36:00,
2013-06-14 22:41:00,72.2,61.5,29.84,ESE,117,4.0,7.0,69,0.00,,,0.00,VWS V14.01,2013-06-15 03:41:00,
2013-06-14 22:46:00,72.1,61.8,29.84,ESE,108,2.0,7.0,70,0.00,,,0.00,VWS V14.01,2013-06-15 03:46:00,
2013-06-14 22:51:00,71.9,61.6,29.83,SE,136,0.0,7.0,70,0.00,,,0.00,VWS V14.01,2013-06-15 03:51:00,
2013-06-14 22:56:00,71.8,61.5,29.83,SE,137,0.0,7.0,70,0.00,,,0.00,VWS V14.01,2013-06-15 03:56:00,
2013-06-14 23:00:00,71.6,61.7,29.83,SE,137,0.0,7.0,71,0.00,,,0.00,VWS V14.01,2013-06-15 04:00:00,
2013-06-14 23:01:00,71.6,61.7,29.83,SE,136,0.0,7.0,71,0.00,,,0.00,VWS V14.01,2013-06-15 04:01:00,
2013-06-14 23:02:00,71.6,61.7,29.83,SE,136,1.0,3.0,71,0.00,,,0.00,VWS V14.01,2013-06-15 04:02:00,
2013-06-14 23:03:00,71.5,61.6,29.83,SE,136,0.0,3.0,71,0.00,,,0.00,VWS V14.01,2013-06-15 04:03:00,
2013-06-14 23:08:00,71.3,61.4,29.84,SE,124,0.0,5.0,71,0.00,,,0.00,VWS V14.01,2013-06-15 04:08:00,
2013-06-14 23:13:00,71.2,61.3,29.84,SE,124,0.0,5.0,71,0.00,,,0.00,VWS V14.01,2013-06-15 04:13:00,
2013-06-14 23:18:00,71.1,61.2,29.84,ESE,108,4.0,5.0,71,0.00,,,0.00,VWS V14.01,2013-06-15 04:18:00,
2013-06-14 23:24:00,71.1,61.2,29.85,ESE,108,0.0,5.0,71,0.00,,,0.00,VWS V14.01,2013-06-15 04:24:00,
2013-06-14 23:29:00,71.0,61.1,29.85,ESE,108,0.0,5.0,71,0.00,,,0.00,VWS V14.01,2013-06-15 04:29:00,
2013-06-14 23:30:00,70.9,61.4,29.84,ESE,108,0.0,5.0,72,0.00,,,0.00,VWS V14.01,2013-06-15 04:30:00,
2013-06-14 23:34:00,70.9,61.4,29.84,ESE,108,0.0,0.0,72,0.00,,,0.00,VWS V14.01,2013-06-15 04:34:00,
2013-06-14 23:39:00,70.7,61.2,29.84,ESE,108,0.0,3.0,72,0.00,,,0.00,VWS V14.01,2013-06-15 04:39:00,
2013-06-14 23:44:00,70.6,61.5,29.84,ESE,108,0.0,4.0,73,0.00,,,0.00,VWS V14.01,2013-06-15 04:44:00,
2013-06-14 23:49:00,70.5,61.0,29.84,ESE,109,0.0,5.0,72,0.00,,,0.00,VWS V14.01,2013-06-15 04:49:00,
2013-06-14 23:54:00,70.5,61.0,29.85,ESE,110,3.0,5.0,72,0.00,,,0.00,VWS V14.01,2013-06-15 04:54:00,
2013-06-14 23:59:00,70.4,61.0,29.85,ESE,107,1.0,7.0,72,0.00,,,0.00,VWS V14.01,2013-06-15 04:59:00,